Woodridge, Canada
Current Conditions -  °F | °C
As of 12:14 AM on Wednesday 22 Oct 2014 (Local Time) from KROX Reporting Station
Clear Clear  
Wind Chill: 52°   Ceiling: Unl
Heat Index: 52°   Visibility: 10mi
Dew Point: 41°   Wind: 18mph
Humidity: 67%   Direction: 160°SSE
Pressure: 29.92"   Gusts: 25mph
Location:  49.28°N, 96.15°W
Report Text: KROX 220514Z AUTO 16016G22KT 10SM CLR 11/05 A2992 RMK AO2
Loading
Personal Weather Stations






























Interactive Weather Map
Tropical Storm Tracking
New forecast layout! Learn more

10-Day Weather Forecast

Advertisements
Track Severe Weather on mobile